sensor_id;sensor_type;location;lat;lon;timestamp;pressure;altitude;pressure_sealevel;temperature;humidity
52993;BME280;38875;52.216;21.040;2022-12-22T08:24:41;145708.56;;;3.26;100.00
52993;BME280;38875;52.216;21.040;2022-12-22T08:27:12;145698.47;;;3.22;100.00
52993;BME280;38875;52.216;21.040;2022-12-22T08:29:46;145706.06;;;3.25;100.00
52993;BME280;38875;52.216;21.040;2022-12-22T08:32:14;145733.81;;;3.36;100.00
52993;BME280;38875;52.216;21.040;2022-12-22T08:34:40;145771.72;;;3.51;100.00
52993;BME280;38875;52.216;21.040;2022-12-22T08:37:11;145776.78;;;3.53;100.00
52993;BME280;38875;52.216;21.040;2022-12-22T08:39:40;145769.19;;;3.50;100.00
52993;BME280;38875;52.216;21.040;2022-12-22T08:42:12;145784.34;;;3.56;100.00
52993;BME280;38875;52.216;21.040;2022-12-22T08:44:40;145765.41;;;3.49;100.00
52993;BME280;38875;52.216;21.040;2022-12-22T08:47:06;145779.28;;;3.54;100.00
52993;BME280;38875;52.216;21.040;2022-12-22T08:49:32;145765.41;;;3.49;100.00
52993;BME280;38875;52.216;21.040;2022-12-22T08:52:04;145778.03;;;3.54;100.00
52993;BME280;38875;52.216;21.040;2022-12-22T08:54:43;145783.09;;;3.56;100.00
52993;BME280;38875;52.216;21.040;2022-12-22T08:57:21;145757.78;;;3.46;100.00
52993;BME280;38875;52.216;21.040;2022-12-22T08:59:56;145718.69;;;3.30;100.00
52993;BME280;38875;52.216;21.040;2022-12-22T09:02:22;145784.34;;;3.56;100.00
52993;BME280;38875;52.216;21.040;2022-12-22T09:04:48;145766.69;;;3.49;100.00
52993;BME280;38875;52.216;21.040;2022-12-22T09:07:14;145779.28;;;3.54;100.00
52993;BME280;38875;52.216;21.040;2022-12-22T09:09:40;145775.50;;;3.53;100.00
52993;BME280;38875;52.216;21.040;2022-12-22T09:12:06;145754.00;;;3.44;100.00
52993;BME280;38875;52.216;21.040;2022-12-22T09:14:32;145766.69;;;3.49;100.00
52993;BME280;38875;52.216;21.040;2022-12-22T09:16:58;145754.00;;;3.44;100.00
52993;BME280;38875;52.216;21.040;2022-12-22T09:27:19;145778.03;;;3.54;100.00
52993;BME280;38875;52.216;21.040;2022-12-22T09:29:59;145783.09;;;3.56;100.00
52993;BME280;38875;52.216;21.040;2022-12-22T09:32:26;145796.97;;;3.61;100.00
52993;BME280;38875;52.216;21.040;2022-12-22T09:34:52;145809.59;;;3.66;100.00
52993;BME280;38875;52.216;21.040;2022-12-22T09:37:18;145820.94;;;3.71;100.00
52993;BME280;38875;52.216;21.040;2022-12-22T09:39:44;145824.72;;;3.72;100.00
52993;BME280;38875;52.216;21.040;2022-12-22T09:42:18;145852.56;;;3.84;100.00
52993;BME280;38875;52.216;21.040;2022-12-22T09:44:46;145857.59;;;3.86;100.00
52993;BME280;38875;52.216;21.040;2022-12-22T09:47:23;145885.38;;;3.97;100.00
52993;BME280;38875;52.216;21.040;2022-12-22T09:49:50;145908.16;;;4.06;100.00
52993;BME280;38875;52.216;21.040;2022-12-22T09:52:29;145913.22;;;4.08;100.00
52993;BME280;38875;52.216;21.040;2022-12-22T09:55:12;145905.63;;;4.05;100.00
52993;BME280;38875;52.216;21.040;2022-12-22T09:57:40;145932.16;;;4.16;100.00
52993;BME280;38875;52.216;21.040;2022-12-22T10:08:12;145938.47;;;4.18;100.00
52993;BME280;38875;52.216;21.040;2022-12-22T10:10:40;145918.25;;;4.10;100.00
52993;BME280;38875;52.216;21.040;2022-12-22T10:13:06;145917.00;;;4.10;100.00
52993;BME280;38875;52.216;21.040;2022-12-22T10:15:40;145895.47;;;4.01;100.00
52993;BME280;38875;52.216;21.040;2022-12-22T10:18:14;145928.34;;;4.14;100.00
52993;BME280;38875;52.216;21.040;2022-12-22T10:20:42;145946.03;;;4.21;100.00
52993;BME280;38875;52.216;21.040;2022-12-22T10:23:21;145948.56;;;4.22;100.00
52993;BME280;38875;52.216;21.040;2022-12-22T10:28:28;145910.69;;;4.07;100.00
52993;BME280;38875;52.216;21.040;2022-12-22T10:31:31;145934.69;;;4.17;100.00
52993;BME280;38875;52.216;21.040;2022-12-22T10:34:15;145923.31;;;4.12;100.00
52993;BME280;38875;52.216;21.040;2022-12-22T10:36:46;145946.03;;;4.21;100.00
52993;BME280;38875;52.216;21.040;2022-12-22T10:41:49;145959.94;;;4.27;100.00
52993;BME280;38875;52.216;21.040;2022-12-22T10:46:47;145999.13;;;4.43;100.00
52993;BME280;38875;52.216;21.040;2022-12-22T10:51:43;146020.59;;;4.51;100.00
52993;BME280;38875;52.216;21.040;2022-12-22T10:54:29;145981.44;;;4.35;100.00
52993;BME280;38875;52.216;21.040;2022-12-22T10:59:29;145987.75;;;4.38;100.00
52993;BME280;38875;52.216;21.040;2022-12-22T11:04:52;146002.91;;;4.44;100.00
52993;BME280;38875;52.216;21.040;2022-12-22T11:07:19;146016.81;;;4.50;100.00
52993;BME280;38875;52.216;21.040;2022-12-22T11:09:45;146006.72;;;4.46;100.00
52993;BME280;38875;52.216;21.040;2022-12-22T11:12:20;145994.09;;;4.41;100.00
52993;BME280;38875;52.216;21.040;2022-12-22T11:15:11;145971.28;;;4.31;100.00
52993;BME280;38875;52.216;21.040;2022-12-22T11:20:38;145961.19;;;4.27;100.00
52993;BME280;38875;52.216;21.040;2022-12-22T11:26:12;145981.44;;;4.35;100.00
52993;BME280;38875;52.216;21.040;2022-12-22T11:37:29;146010.50;;;4.47;100.00
52993;BME280;38875;52.216;21.040;2022-12-22T11:40:15;146052.25;;;4.64;100.00
52993;BME280;38875;52.216;21.040;2022-12-22T11:50:45;146123.03;;;4.92;100.00
52993;BME280;38875;52.216;21.040;2022-12-22T11:56:26;146125.56;;;4.93;100.00
52993;BME280;38875;52.216;21.040;2022-12-22T12:05:14;146250.75;;;5.44;100.00
52993;BME280;38875;52.216;21.040;2022-12-22T12:07:28;146153.38;;;5.05;100.00
52993;BME280;38875;52.216;21.040;2022-12-22T12:10:14;146129.34;;;4.95;100.00
52993;BME280;38875;52.216;21.040;2022-12-22T12:12:58;146160.94;;;5.08;100.00
52993;BME280;38875;52.216;21.040;2022-12-22T12:20:47;146153.38;;;5.05;100.00
52993;BME280;38875;52.216;21.040;2022-12-22T12:23:45;146145.78;;;5.02;100.00
52993;BME280;38875;52.216;21.040;2022-12-22T12:31:41;146120.47;;;4.91;100.00
52993;BME280;38875;52.216;21.040;2022-12-22T12:34:14;146154.63;;;5.05;100.00
52993;BME280;38875;52.216;21.040;2022-12-22T12:37:00;146155.91;;;5.06;100.00
52993;BME280;38875;52.216;21.040;2022-12-22T12:39:34;146159.69;;;5.07;100.00
52993;BME280;38875;52.216;21.040;2022-12-22T12:44:52;146157.16;;;5.06;100.00
52993;BME280;38875;52.216;21.040;2022-12-22T12:47:33;146157.16;;;5.06;100.00
52993;BME280;38875;52.216;21.040;2022-12-22T13:23:58;145978.94;;;4.34;100.00
52993;BME280;38875;52.216;21.040;2022-12-22T13:26:35;145967.50;;;4.30;100.00
52993;BME280;38875;52.216;21.040;2022-12-22T13:31:46;145933.41;;;4.16;100.00
52993;BME280;38875;52.216;21.040;2022-12-22T13:34:36;145941.00;;;4.19;100.00
52993;BME280;38875;52.216;21.040;2022-12-22T13:37:14;145944.78;;;4.21;100.00
52993;BME280;38875;52.216;21.040;2022-12-22T13:39:41;145942.25;;;4.20;100.00
52993;BME280;38875;52.216;21.040;2022-12-22T13:42:10;145928.34;;;4.14;100.00
52993;BME280;38875;52.216;21.040;2022-12-22T13:44:37;145933.41;;;4.16;100.00
52993;BME280;38875;52.216;21.040;2022-12-22T13:47:06;145938.47;;;4.18;100.00
52993;BME280;38875;52.216;21.040;2022-12-22T13:49:38;145924.56;;;4.13;100.00
52993;BME280;38875;52.216;21.040;2022-12-22T13:52:05;145930.88;;;4.15;100.00
52993;BME280;38875;52.216;21.040;2022-12-22T13:54:36;145935.94;;;4.17;100.00
52993;BME280;38875;52.216;21.040;2022-12-22T13:57:04;145930.88;;;4.15;100.00
52993;BME280;38875;52.216;21.040;2022-12-22T13:59:42;145953.63;;;4.24;100.00
52993;BME280;38875;52.216;21.040;2022-12-22T14:04:35;145954.88;;;4.25;100.00
52993;BME280;38875;52.216;21.040;2022-12-22T14:09:49;145958.66;;;4.26;100.00
52993;BME280;38875;52.216;21.040;2022-12-22T14:12:18;145963.72;;;4.28;100.00
52993;BME280;38875;52.216;21.040;2022-12-22T14:14:47;145976.34;;;4.33;100.00
52993;BME280;38875;52.216;21.040;2022-12-22T14:17:31;145977.66;;;4.34;100.00
52993;BME280;38875;52.216;21.040;2022-12-22T14:20:01;145977.66;;;4.34;100.00
52993;BME280;38875;52.216;21.040;2022-12-22T14:22:37;145991.56;;;4.40;100.00
52993;BME280;38875;52.216;21.040;2022-12-22T14:25:17;145978.94;;;4.34;100.00
52993;BME280;38875;52.216;21.040;2022-12-22T14:27:49;146009.25;;;4.47;100.00
52993;BME280;38875;52.216;21.040;2022-12-22T14:32:49;145999.13;;;4.43;100.00
52993;BME280;38875;52.216;21.040;2022-12-22T14:37:49;146004.19;;;4.45;100.00
52993;BME280;38875;52.216;21.040;2022-12-22T14:40:36;146004.19;;;4.45;100.00
52993;BME280;38875;52.216;21.040;2022-12-22T14:43:19;146005.44;;;4.45;100.00
52993;BME280;38875;52.216;21.040;2022-12-22T14:46:17;146021.88;;;4.52;100.00
52993;BME280;38875;52.216;21.040;2022-12-22T14:48:46;146000.41;;;4.43;100.00
52993;BME280;38875;52.216;21.040;2022-12-22T14:51:16;145999.13;;;4.43;100.00
52993;BME280;38875;52.216;21.040;2022-12-22T14:56:14;145999.13;;;4.43;100.00
52993;BME280;38875;52.216;21.040;2022-12-22T14:58:43;146006.72;;;4.46;100.00
52993;BME280;38875;52.216;21.040;2022-12-22T15:01:16;145987.75;;;4.38;100.00
52993;BME280;38875;52.216;21.040;2022-12-22T15:03:43;145986.50;;;4.38;100.00
52993;BME280;38875;52.216;21.040;2022-12-22T15:09:06;146014.28;;;4.49;100.00
52993;BME280;38875;52.216;21.040;2022-12-22T15:11:48;146007.97;;;4.46;100.00
52993;BME280;38875;52.216;21.040;2022-12-22T15:14:21;145995.34;;;4.41;100.00
52993;BME280;38875;52.216;21.040;2022-12-22T15:16:48;146009.25;;;4.47;100.00
52993;BME280;38875;52.216;21.040;2022-12-22T15:19:16;146021.88;;;4.52;100.00
52993;BME280;38875;52.216;21.040;2022-12-22T15:21:43;145963.72;;;4.28;100.00
52993;BME280;38875;52.216;21.040;2022-12-22T15:24:14;145946.03;;;4.21;100.00
52993;BME280;38875;52.216;21.040;2022-12-22T15:26:41;145928.34;;;4.14;100.00
52993;BME280;38875;52.216;21.040;2022-12-22T15:29:07;145919.53;;;4.11;100.00
52993;BME280;38875;52.216;21.040;2022-12-22T15:31:33;145933.41;;;4.16;100.00
52993;BME280;38875;52.216;21.040;2022-12-22T15:34:01;145924.56;;;4.13;100.00
52993;BME280;38875;52.216;21.040;2022-12-22T15:36:28;145942.25;;;4.20;100.00
52993;BME280;38875;52.216;21.040;2022-12-22T15:38:53;145938.47;;;4.18;100.00
52993;BME280;38875;52.216;21.040;2022-12-22T15:41:19;145905.63;;;4.05;100.00
52993;BME280;38875;52.216;21.040;2022-12-22T15:43:45;145911.94;;;4.08;100.00
52993;BME280;38875;52.216;21.040;2022-12-22T15:46:15;145920.78;;;4.11;100.00
52993;BME280;38875;52.216;21.040;2022-12-22T15:48:46;145920.78;;;4.11;100.00
52993;BME280;38875;52.216;21.040;2022-12-22T15:51:25;145905.63;;;4.05;100.00
52993;BME280;38875;52.216;21.040;2022-12-22T15:53:51;145903.06;;;4.04;100.00
52993;BME280;38875;52.216;21.040;2022-12-22T15:56:20;145886.66;;;3.97;100.00
52993;BME280;38875;52.216;21.040;2022-12-22T15:58:47;145891.69;;;3.99;100.00
52993;BME280;38875;52.216;21.040;2022-12-22T16:01:13;145863.91;;;3.88;100.00
52993;BME280;38875;52.216;21.040;2022-12-22T16:03:39;145879.06;;;3.94;100.00
52993;BME280;38875;52.216;21.040;2022-12-22T16:06:05;145887.91;;;3.98;100.00
52993;BME280;38875;52.216;21.040;2022-12-22T16:08:38;145862.66;;;3.88;100.00
